Time;durP1;ratioP1;P1;durP2;ratioP2;P2;SDS_P1;SDS_P2;PMS_P1;PMS_P2;Temp;Humidity;BMP_temperature;BMP_pressure;BME280_temperature;BME280_humidity;BME280_pressure;Samples;Min_cycle;Max_cycle;Signal;HPM_P1;HPM_P2
2020/12/04 00:00:52;;;;;;;4.17;3.77;;;;;;;;;;5025573;28;20725;-75
2020/12/04 00:03:17;;;;;;;4.80;4.10;;;;;;;;;;5045140;28;20205;-75
2020/12/04 00:05:42;;;;;;;4.60;3.80;;;;;;;;;;5034910;28;20191;-75
2020/12/04 00:08:07;;;;;;;4.80;4.27;;;;;;;;;;5030368;28;20189;-75
2020/12/04 00:10:32;;;;;;;4.50;3.53;;;;;;;;;;5034398;28;20201;-73
2020/12/04 00:12:58;;;;;;;4.30;3.90;;;;;;;;;;5034187;28;20705;-73
2020/12/04 00:15:23;;;;;;;5.87;4.63;;;;;;;;;;5026435;28;20182;-73
2020/12/04 00:17:48;;;;;;;4.37;3.90;;;;;;;;;;5027536;28;20189;-73
2020/12/04 00:20:13;;;;;;;4.10;3.70;;;;;;;;;;5028856;28;20227;-75
2020/12/04 00:22:38;;;;;;;5.20;4.20;;;;;;;;;;5031155;28;20590;-73
2020/12/04 00:25:04;;;;;;;4.97;3.90;;;;;;;;;;5029522;28;20181;-73
2020/12/04 00:27:29;;;;;;;5.17;4.27;;;;;;;;;;5030409;28;20181;-73
2020/12/04 00:29:54;;;;;;;4.93;4.43;;;;;;;;;;5029033;28;20372;-73
2020/12/04 00:32:19;;;;;;;4.07;3.63;;;;;;;;;;5027190;28;20214;-73
2020/12/04 00:34:44;;;;;;;4.40;4.00;;;;;;;;;;5029189;28;20590;-74
2020/12/04 00:37:10;;;;;;;4.37;3.97;;;;;;;;;;5027504;28;20213;-75
2020/12/04 00:39:36;;;;;;;4.70;4.23;;;;;;;;;;5030883;28;20193;-74
2020/12/04 00:42:01;;;;;;;4.40;4.00;;;;;;;;;;5028380;28;20189;-73
2020/12/04 00:44:26;;;;;;;4.33;3.93;;;;;;;;;;5028995;28;20178;-73
2020/12/04 00:46:51;;;;;;;5.27;3.97;;;;;;;;;;5026398;28;20189;-73
2020/12/04 00:49:17;;;;;;;4.47;4.07;;;;;;;;;;5028582;28;20193;-73
2020/12/04 00:51:42;;;;;;;4.80;4.13;;;;;;;;;;5028093;28;20181;-74
2020/12/04 00:54:07;;;;;;;4.97;4.27;;;;;;;;;;5034870;28;20189;-74
2020/12/04 00:56:33;;;;;;;4.80;4.23;;;;;;;;;;5030356;28;20685;-73
2020/12/04 00:58:58;;;;;;;5.57;4.67;;;;;;;;;;5030016;28;20933;-73
2020/12/04 01:01:24;;;;;;;5.93;5.00;;;;;;;;;;5035273;28;20178;-74
2020/12/04 01:03:49;;;;;;;4.53;3.70;;;;;;;;;;5047410;28;20742;-74
2020/12/04 01:06:14;;;;;;;4.90;4.40;;;;;;;;;;5041806;28;20552;-74
2020/12/04 01:08:41;;;;;;;5.00;4.50;;;;;;;;;;5050225;28;20173;-74
2020/12/04 01:11:06;;;;;;;5.97;4.93;;;;;;;;;;5041776;28;20260;-73
2020/12/04 01:13:31;;;;;;;5.47;4.80;;;;;;;;;;5043843;28;20240;-73
2020/12/04 01:15:56;;;;;;;6.40;5.17;;;;;;;;;;5041675;28;20206;-73
2020/12/04 01:18:21;;;;;;;6.87;5.30;;;;;;;;;;5040941;28;20174;-74
2020/12/04 01:20:47;;;;;;;7.40;4.83;;;;;;;;;;5042672;28;20560;-73
2020/12/04 01:23:12;;;;;;;6.07;4.93;;;;;;;;;;5040728;28;20190;-73
2020/12/04 01:25:37;;;;;;;6.53;5.17;;;;;;;;;;5037721;28;20213;-73
2020/12/04 01:28:02;;;;;;;7.93;5.50;;;;;;;;;;5042312;28;20189;-74
2020/12/04 01:30:27;;;;;;;6.93;5.30;;;;;;;;;;5038159;28;20182;-73
2020/12/04 01:32:52;;;;;;;6.53;5.37;;;;;;;;;;5043122;28;20247;-73
2020/12/04 01:35:18;;;;;;;6.73;4.67;;;;;;;;;;5043214;28;20173;-73
2020/12/04 01:37:43;;;;;;;6.57;4.80;;;;;;;;;;5045122;28;20661;-74
2020/12/04 01:40:08;;;;;;;9.33;5.57;;;;;;;;;;5035780;28;20181;-74
2020/12/04 01:42:34;;;;;;;8.33;4.97;;;;;;;;;;5045146;28;20213;-73
2020/12/04 01:44:59;;;;;;;6.07;4.93;;;;;;;;;;5046197;28;20182;-73
2020/12/04 01:47:25;;;;;;;5.33;4.77;;;;;;;;;;5040577;28;20188;-74
2020/12/04 01:49:50;;;;;;;6.10;4.93;;;;;;;;;;5044172;28;20726;-74
2020/12/04 01:52:16;;;;;;;6.03;4.90;;;;;;;;;;5037303;28;20836;-74
2020/12/04 01:54:44;;;;;;;5.00;4.30;;;;;;;;;;5042371;28;20231;-74
2020/12/04 01:57:09;;;;;;;6.23;4.63;;;;;;;;;;5041124;28;20264;-74
2020/12/04 01:59:34;;;;;;;6.40;4.53;;;;;;;;;;5040642;28;20178;-74
2020/12/04 02:02:16;;;;;;;5.87;4.20;;;;;;;;;;5047060;28;20197;-74
2020/12/04 02:04:41;;;;;;;6.03;4.27;;;;;;;;;;5045200;28;20200;-75
2020/12/04 02:07:09;;;;;;;5.83;3.73;;;;;;;;;;5042222;28;20194;-76
2020/12/04 02:09:40;;;;;;;6.20;4.43;;;;;;;;;;5048202;28;20256;-75
2020/12/04 02:12:05;;;;;;;4.63;3.83;;;;;;;;;;5046028;28;20232;-75
2020/12/04 02:14:31;;;;;;;5.07;3.67;;;;;;;;;;5048739;28;20185;-75
2020/12/04 02:17:03;;;;;;;5.07;4.10;;;;;;;;;;5046559;28;20265;-75
2020/12/04 02:19:33;;;;;;;5.00;3.73;;;;;;;;;;5044420;28;20171;-75
2020/12/04 02:21:59;;;;;;;6.07;4.17;;;;;;;;;;5049467;28;20587;-75
2020/12/04 02:24:25;;;;;;;5.27;4.23;;;;;;;;;;5053205;28;20178;-75
2020/12/04 02:26:51;;;;;;;5.43;4.43;;;;;;;;;;5036880;28;20183;-75
2020/12/04 02:29:16;;;;;;;5.73;4.83;;;;;;;;;;5042212;28;20209;-75
2020/12/04 02:31:42;;;;;;;7.80;4.43;;;;;;;;;;5044357;28;20169;-74
2020/12/04 02:34:07;;;;;;;6.57;4.73;;;;;;;;;;5046618;28;20220;-72
2020/12/04 02:36:32;;;;;;;5.33;4.20;;;;;;;;;;5045084;28;20273;-75
2020/12/04 02:38:57;;;;;;;7.13;5.20;;;;;;;;;;5040901;28;20648;-74
2020/12/04 02:41:22;;;;;;;5.60;4.10;;;;;;;;;;5040325;28;20180;-75
2020/12/04 02:43:47;;;;;;;6.63;4.93;;;;;;;;;;5041434;28;20199;-74
2020/12/04 02:46:12;;;;;;;7.57;4.73;;;;;;;;;;5043525;28;20174;-74
2020/12/04 02:48:38;;;;;;;5.63;5.00;;;;;;;;;;5043181;28;20533;-74
2020/12/04 02:51:05;;;;;;;6.53;5.00;;;;;;;;;;5043883;28;20175;-75
2020/12/04 02:53:30;;;;;;;6.13;5.00;;;;;;;;;;5042908;28;20558;-74
2020/12/04 02:55:56;;;;;;;7.63;5.10;;;;;;;;;;5040535;28;20206;-74
2020/12/04 02:58:21;;;;;;;7.53;5.97;;;;;;;;;;5041706;28;20299;-74
2020/12/04 03:00:46;;;;;;;6.97;5.03;;;;;;;;;;5042617;28;20234;-74
2020/12/04 03:03:11;;;;;;;7.17;5.00;;;;;;;;;;5040420;28;20224;-75
2020/12/04 03:05:36;;;;;;;6.30;4.90;;;;;;;;;;5045551;28;20174;-74
2020/12/04 03:08:01;;;;;;;6.45;5.25;;;;;;;;;;5043160;28;20196;-74
2020/12/04 03:10:27;;;;;;;6.73;4.80;;;;;;;;;;5039701;28;20239;-74
2020/12/04 03:12:52;;;;;;;6.77;5.00;;;;;;;;;;5043408;28;20636;-74
2020/12/04 03:15:17;;;;;;;5.20;4.20;;;;;;;;;;5044755;28;20193;-74
2020/12/04 03:17:42;;;;;;;6.03;4.57;;;;;;;;;;5041814;28;20185;-75
2020/12/04 03:20:07;;;;;;;5.77;4.47;;;;;;;;;;5042958;28;20648;-74
2020/12/04 03:22:33;;;;;;;8.20;4.43;;;;;;;;;;5038991;28;20197;-74
2020/12/04 03:24:58;;;;;;;4.57;4.03;;;;;;;;;;5043500;28;20667;-74
2020/12/04 03:27:23;;;;;;;6.53;4.43;;;;;;;;;;5043357;28;20187;-74
2020/12/04 03:29:48;;;;;;;5.00;3.67;;;;;;;;;;5044329;28;20190;-74
2020/12/04 03:32:14;;;;;;;5.80;3.87;;;;;;;;;;5040791;28;20209;-74
2020/12/04 03:34:40;;;;;;;5.67;3.97;;;;;;;;;;5042471;28;20658;-74
2020/12/04 03:37:05;;;;;;;4.07;3.50;;;;;;;;;;5040538;28;20331;-74
2020/12/04 03:39:30;;;;;;;5.97;3.80;;;;;;;;;;5047880;28;20266;-74
2020/12/04 03:41:55;;;;;;;6.70;3.67;;;;;;;;;;5036344;28;20202;-74
2020/12/04 03:44:20;;;;;;;3.80;3.43;;;;;;;;;;5041904;28;20537;-74
2020/12/04 03:46:48;;;;;;;3.80;2.87;;;;;;;;;;5039803;28;20178;-74
2020/12/04 03:49:15;;;;;;;4.23;3.33;;;;;;;;;;5040784;28;20201;-74
2020/12/04 03:51:40;;;;;;;3.57;2.90;;;;;;;;;;5043988;28;20668;-74
2020/12/04 03:54:06;;;;;;;3.33;2.80;;;;;;;;;;5048654;28;20188;-74
2020/12/04 03:56:31;;;;;;;4.27;3.07;;;;;;;;;;5036763;28;20687;-74
2020/12/04 03:58:56;;;;;;;2.50;2.30;;;;;;;;;;5038092;28;20178;-74
2020/12/04 04:01:21;;;;;;;3.10;2.30;;;;;;;;;;5040361;28;20639;-75
2020/12/04 04:03:46;;;;;;;2.23;2.03;;;;;;;;;;5047699;28;20322;-74
2020/12/04 04:06:12;;;;;;;3.00;2.40;;;;;;;;;;5037629;28;20178;-74
2020/12/04 04:08:37;;;;;;;1.60;1.50;;;;;;;;;;5039575;28;20320;-74
2020/12/04 04:11:02;;;;;;;2.43;2.13;;;;;;;;;;5035507;28;20185;-74
2020/12/04 04:13:28;;;;;;;3.37;2.03;;;;;;;;;;5038306;28;20220;-74
2020/12/04 04:15:54;;;;;;;2.37;1.87;;;;;;;;;;5046570;28;20271;-74
2020/12/04 04:18:19;;;;;;;2.63;2.07;;;;;;;;;;5042311;28;20197;-74
2020/12/04 04:20:46;;;;;;;2.77;2.10;;;;;;;;;;5044860;28;20170;-74
2020/12/04 04:23:11;;;;;;;2.40;1.87;;;;;;;;;;5039743;28;20734;-74
2020/12/04 04:25:36;;;;;;;2.10;1.50;;;;;;;;;;5043991;28;20177;-75
2020/12/04 04:28:01;;;;;;;3.25;1.83;;;;;;;;;;5039828;28;20177;-74
2020/12/04 04:30:26;;;;;;;2.40;1.80;;;;;;;;;;5040442;28;20185;-74
2020/12/04 04:32:51;;;;;;;3.67;1.63;;;;;;;;;;5043290;28;20197;-75
2020/12/04 04:35:17;;;;;;;2.00;1.60;;;;;;;;;;5044099;28;20205;-74
2020/12/04 04:37:42;;;;;;;1.83;1.63;;;;;;;;;;5048506;28;20251;-75
2020/12/04 04:40:08;;;;;;;2.27;1.97;;;;;;;;;;5040210;28;20572;-74
2020/12/04 04:42:33;;;;;;;2.40;1.90;;;;;;;;;;5048650;28;20702;-74
2020/12/04 04:45:01;;;;;;;1.83;1.70;;;;;;;;;;5045343;28;20253;-75
2020/12/04 04:47:29;;;;;;;2.63;1.63;;;;;;;;;;5039784;28;20678;-75
2020/12/04 04:49:55;;;;;;;2.03;1.83;;;;;;;;;;5049472;28;20184;-75
2020/12/04 04:52:20;;;;;;;2.00;1.60;;;;;;;;;;5045340;28;20203;-74
2020/12/04 04:54:48;;;;;;;2.47;1.90;;;;;;;;;;5048925;28;20185;-75
2020/12/04 04:57:14;;;;;;;2.20;1.70;;;;;;;;;;5051014;28;20217;-75
2020/12/04 04:59:39;;;;;;;2.30;1.90;;;;;;;;;;5048998;28;20816;-74
2020/12/04 05:02:05;;;;;;;2.77;1.93;;;;;;;;;;5050289;28;20189;-74
2020/12/04 05:05:02;;;;;;;2.53;1.80;;;;;;;;;;5048638;28;20664;-74
2020/12/04 05:07:29;;;;;;;2.20;2.00;;;;;;;;;;5041830;28;20197;-75
2020/12/04 05:10:08;;;;;;;2.50;1.90;;;;;;;;;;5047679;28;20177;-74
2020/12/04 05:12:33;;;;;;;2.10;1.70;;;;;;;;;;5038554;28;20209;-74
2020/12/04 05:14:58;;;;;;;2.00;1.80;;;;;;;;;;5046996;28;20654;-74
2020/12/04 05:17:24;;;;;;;3.03;1.90;;;;;;;;;;5036162;28;20213;-74
2020/12/04 05:19:49;;;;;;;2.20;1.77;;;;;;;;;;5044598;28;20177;-74
2020/12/04 05:22:15;;;;;;;3.03;2.10;;;;;;;;;;5038799;28;20216;-75
2020/12/04 05:24:40;;;;;;;2.97;2.07;;;;;;;;;;5048491;28;20177;-75
2020/12/04 05:27:29;;;;;;;2.23;1.97;;;;;;;;;;5036731;28;20178;-74
2020/12/04 05:29:58;;;;;;;2.07;1.87;;;;;;;;;;5043504;28;20637;-74
2020/12/04 05:32:24;;;;;;;3.57;1.70;;;;;;;;;;5034000;28;20583;-75
2020/12/04 05:34:50;;;;;;;2.70;1.90;;;;;;;;;;5040482;28;20557;-74
2020/12/04 05:37:19;;;;;;;2.30;2.10;;;;;;;;;;5033709;28;20205;-74
2020/12/04 05:39:48;;;;;;;3.10;2.40;;;;;;;;;;5039692;28;20178;-74
2020/12/04 05:42:28;;;;;;;2.20;1.93;;;;;;;;;;5040913;28;20201;-74
2020/12/04 05:44:54;;;;;;;3.00;2.33;;;;;;;;;;5039869;28;20260;-74
2020/12/04 05:47:19;;;;;;;2.50;1.97;;;;;;;;;;5039988;28;20747;-74
2020/12/04 05:49:45;;;;;;;2.40;1.90;;;;;;;;;;5042758;28;20232;-74
2020/12/04 05:52:12;;;;;;;1.60;1.50;;;;;;;;;;5040388;28;20241;-73
2020/12/04 05:54:38;;;;;;;2.03;1.87;;;;;;;;;;5039811;28;20196;-74
2020/12/04 05:57:06;;;;;;;1.93;1.67;;;;;;;;;;5032008;28;20214;-74
2020/12/04 05:59:31;;;;;;;3.97;2.00;;;;;;;;;;5039118;28;20603;-73
2020/12/04 06:01:56;;;;;;;1.63;1.53;;;;;;;;;;5040875;28;20687;-74
2020/12/04 06:04:24;;;;;;;2.87;1.90;;;;;;;;;;5045352;28;20182;-73
2020/12/04 06:06:49;;;;;;;2.77;1.80;;;;;;;;;;5039882;28;20250;-74
2020/12/04 06:09:14;;;;;;;2.13;1.50;;;;;;;;;;5040833;28;20201;-74
2020/12/04 06:11:40;;;;;;;1.70;1.60;;;;;;;;;;5039396;28;20186;-73
2020/12/04 06:14:12;;;;;;;2.87;1.90;;;;;;;;;;5038817;28;20186;-73
2020/12/04 06:16:37;;;;;;;2.07;1.87;;;;;;;;;;5043638;28;20198;-74
2020/12/04 06:19:23;;;;;;;3.27;1.50;;;;;;;;;;5044177;28;20261;-73
2020/12/04 06:21:49;;;;;;;3.40;2.03;;;;;;;;;;5042013;28;20193;-74
2020/12/04 06:24:14;;;;;;;3.37;1.90;;;;;;;;;;5048020;28;20181;-74
2020/12/04 06:26:47;;;;;;;1.70;1.60;;;;;;;;;;5047507;28;20193;-73
2020/12/04 06:29:12;;;;;;;2.63;1.83;;;;;;;;;;5040228;28;20197;-74
2020/12/04 06:31:37;;;;;;;2.00;1.60;;;;;;;;;;5038672;28;20174;-74
2020/12/04 06:34:12;;;;;;;2.47;1.90;;;;;;;;;;5038563;28;20647;-73
2020/12/04 06:36:37;;;;;;;1.63;1.37;;;;;;;;;;5036143;28;20254;-73
2020/12/04 06:39:03;;;;;;;2.33;1.67;;;;;;;;;;5038831;28;20175;-73
2020/12/04 06:41:28;;;;;;;6.83;2.23;;;;;;;;;;5043011;28;20248;-73
2020/12/04 06:44:03;;;;;;;2.43;1.73;;;;;;;;;;5044427;28;20268;-73
2020/12/04 06:46:41;;;;;;;2.83;1.70;;;;;;;;;;5052262;28;20658;-74
2020/12/04 06:49:10;;;;;;;2.00;1.70;;;;;;;;;;5051175;28;20180;-73
2020/12/04 06:51:39;;;;;;;1.77;1.60;;;;;;;;;;5046353;28;20192;-73
2020/12/04 06:54:05;;;;;;;1.97;1.47;;;;;;;;;;5051129;28;20268;-73
2020/12/04 06:56:30;;;;;;;2.07;1.60;;;;;;;;;;5043880;28;20197;-73
2020/12/04 06:58:56;;;;;;;2.10;1.90;;;;;;;;;;5040622;28;20625;-73
2020/12/04 07:01:21;;;;;;;1.83;1.43;;;;;;;;;;5040083;28;20216;-73
2020/12/04 07:03:46;;;;;;;3.40;1.37;;;;;;;;;;5041832;28;20201;-73
2020/12/04 07:06:11;;;;;;;2.33;1.50;;;;;;;;;;5048753;28;20344;-73
2020/12/04 07:08:50;;;;;;;3.27;1.37;;;;;;;;;;5051813;28;20177;-73
2020/12/04 07:11:16;;;;;;;2.93;1.33;;;;;;;;;;5046895;28;20276;-73
2020/12/04 07:13:41;;;;;;;2.27;1.70;;;;;;;;;;5037696;28;20300;-73
2020/12/04 07:16:06;;;;;;;3.07;2.37;;;;;;;;;;5038380;28;20206;-72
2020/12/04 07:18:31;;;;;;;2.20;1.50;;;;;;;;;;5044996;28;20197;-73
2020/12/04 07:20:57;;;;;;;1.70;1.30;;;;;;;;;;5049398;28;20261;-72
2020/12/04 07:23:22;;;;;;;1.63;1.17;;;;;;;;;;5044343;28;20193;-73
2020/12/04 07:25:47;;;;;;;2.37;1.57;;;;;;;;;;5042131;28;20169;-73
2020/12/04 07:28:12;;;;;;;2.23;1.30;;;;;;;;;;5041482;28;20170;-73
2020/12/04 07:30:37;;;;;;;1.70;1.60;;;;;;;;;;5041826;28;20256;-73
2020/12/04 07:33:03;;;;;;;1.43;1.10;;;;;;;;;;5039099;28;20200;-73
2020/12/04 07:35:28;;;;;;;3.43;1.10;;;;;;;;;;5050946;28;20173;-73
2020/12/04 07:37:53;;;;;;;2.17;1.00;;;;;;;;;;5040347;28;20240;-73
2020/12/04 07:40:19;;;;;;;1.83;0.70;;;;;;;;;;5043902;28;20167;-73
2020/12/04 07:42:44;;;;;;;1.87;0.73;;;;;;;;;;5046736;28;20222;-73
2020/12/04 07:45:13;;;;;;;0.50;0.50;;;;;;;;;;5043400;28;20777;-73
2020/12/04 07:47:42;;;;;;;0.97;0.50;;;;;;;;;;5043395;28;20203;-72
2020/12/04 07:50:07;;;;;;;1.03;0.57;;;;;;;;;;5044068;28;20178;-73
2020/12/04 07:52:35;;;;;;;0.43;0.43;;;;;;;;;;5044084;28;20198;-73
2020/12/04 07:55:09;;;;;;;0.70;0.60;;;;;;;;;;5041380;28;20183;-73
2020/12/04 07:57:57;;;;;;;3.43;0.70;;;;;;;;;;5039856;28;20316;-73
2020/12/04 08:00:22;;;;;;;1.20;0.47;;;;;;;;;;5042860;28;20545;-73
2020/12/04 08:02:48;;;;;;;0.57;0.40;;;;;;;;;;5037493;28;20418;-73
2020/12/04 08:05:19;;;;;;;0.40;0.40;;;;;;;;;;5046502;28;20608;-72
2020/12/04 08:07:50;;;;;;;1.10;0.50;;;;;;;;;;5043249;28;20201;-73
2020/12/04 08:10:16;;;;;;;2.03;0.60;;;;;;;;;;5042665;28;20660;-73
2020/12/04 08:12:42;;;;;;;0.77;0.50;;;;;;;;;;5042510;28;20224;-73
2020/12/04 08:15:11;;;;;;;0.73;0.40;;;;;;;;;;5041840;28;20190;-73
2020/12/04 08:17:36;;;;;;;0.90;0.60;;;;;;;;;;5045210;28;20203;-72
2020/12/04 08:20:01;;;;;;;2.30;0.67;;;;;;;;;;5044264;28;20174;-73
2020/12/04 08:22:30;;;;;;;1.63;0.40;;;;;;;;;;5045875;28;20694;-73
2020/12/04 08:25:10;;;;;;;0.50;0.50;;;;;;;;;;5035410;28;20182;-73
2020/12/04 08:27:43;;;;;;;1.03;0.50;;;;;;;;;;5043452;28;20717;-73
2020/12/04 08:30:15;;;;;;;0.90;0.50;;;;;;;;;;5049648;28;20876;-73
2020/12/04 08:32:42;;;;;;;0.97;0.53;;;;;;;;;;5046130;28;20194;-73
2020/12/04 08:35:30;;;;;;;0.53;0.47;;;;;;;;;;5046236;28;20181;-74
2020/12/04 08:38:03;;;;;;;0.93;0.53;;;;;;;;;;5039226;28;20305;-74
2020/12/04 08:40:31;;;;;;;1.70;0.60;;;;;;;;;;5041249;28;22020;-73
2020/12/04 08:43:15;;;;;;;0.70;0.43;;;;;;;;;;5039550;28;20271;-76
2020/12/04 08:45:41;;;;;;;0.50;0.47;;;;;;;;;;5042574;28;20181;-73
2020/12/04 08:48:13;;;;;;;1.37;0.57;;;;;;;;;;5043725;28;20192;-73
2020/12/04 08:50:40;;;;;;;0.83;0.53;;;;;;;;;;5046412;28;20174;-73
2020/12/04 08:53:07;;;;;;;1.30;0.50;;;;;;;;;;5044703;28;20204;-73
2020/12/04 08:55:33;;;;;;;0.53;0.53;;;;;;;;;;5044743;28;20189;-72
2020/12/04 08:57:58;;;;;;;1.33;0.50;;;;;;;;;;5043664;28;20173;-73
2020/12/04 09:00:32;;;;;;;2.40;0.50;;;;;;;;;;5044693;28;20190;-73
2020/12/04 09:02:57;;;;;;;1.10;0.73;;;;;;;;;;5040037;28;20638;-73
2020/12/04 09:05:22;;;;;;;1.47;0.50;;;;;;;;;;5044751;28;20261;-73
2020/12/04 09:07:48;;;;;;;0.87;0.60;;;;;;;;;;5043923;28;20173;-73
2020/12/04 09:10:14;;;;;;;0.60;0.60;;;;;;;;;;5041891;28;20191;-73
2020/12/04 09:12:40;;;;;;;0.50;0.40;;;;;;;;;;5046809;28;20213;-73
2020/12/04 09:15:06;;;;;;;0.80;0.60;;;;;;;;;;5042859;28;20204;-74
2020/12/04 09:17:31;;;;;;;1.07;0.90;;;;;;;;;;5043725;28;20212;-72
2020/12/04 09:19:57;;;;;;;1.13;0.60;;;;;;;;;;5040978;28;20178;-72
2020/12/04 09:22:22;;;;;;;1.40;0.60;;;;;;;;;;5039379;28;20895;-73
2020/12/04 09:24:47;;;;;;;0.73;0.60;;;;;;;;;;5043196;28;20231;-72
2020/12/04 09:27:13;;;;;;;1.07;0.50;;;;;;;;;;5036600;28;20205;-71
2020/12/04 09:29:38;;;;;;;1.10;0.77;;;;;;;;;;5039361;28;20182;-73
2020/12/04 09:32:07;;;;;;;1.60;0.63;;;;;;;;;;5033733;28;20587;-72
2020/12/04 09:34:32;;;;;;;1.00;0.50;;;;;;;;;;5043236;28;20729;-73
2020/12/04 09:37:08;;;;;;;1.00;0.60;;;;;;;;;;5043504;28;20197;-73
2020/12/04 09:39:33;;;;;;;0.60;0.47;;;;;;;;;;5035045;28;20181;-73
2020/12/04 09:41:58;;;;;;;0.70;0.53;;;;;;;;;;5041252;28;20242;-73
2020/12/04 09:44:23;;;;;;;0.85;0.50;;;;;;;;;;5040455;28;20186;-73
2020/12/04 09:46:49;;;;;;;0.73;0.60;;;;;;;;;;5042863;28;20174;-73
2020/12/04 09:49:14;;;;;;;0.73;0.63;;;;;;;;;;5032365;28;20186;-73
2020/12/04 09:51:40;;;;;;;3.10;0.70;;;;;;;;;;5044725;28;20189;-74
2020/12/04 09:54:05;;;;;;;0.53;0.50;;;;;;;;;;5039725;28;20652;-72
2020/12/04 09:56:30;;;;;;;0.47;0.47;;;;;;;;;;5045643;28;20201;-73
2020/12/04 09:58:55;;;;;;;1.30;0.77;;;;;;;;;;5039218;28;20178;-73
2020/12/04 10:01:20;;;;;;;1.43;0.53;;;;;;;;;;5041554;28;20180;-73
2020/12/04 10:03:48;;;;;;;0.32;0.30;;;;;;;;;;5045057;28;20185;-73
2020/12/04 10:06:13;;;;;;;9.30;1.60;;;;;;;;;;5041151;28;20189;-72
2020/12/04 10:08:38;;;;;;;1.33;0.40;;;;;;;;;;5042982;28;20178;-73
2020/12/04 10:11:04;;;;;;;1.37;0.63;;;;;;;;;;5037096;28;20259;-72
2020/12/04 10:13:29;;;;;;;1.87;0.50;;;;;;;;;;5045740;28;20272;-73
2020/12/04 10:16:00;;;;;;;0.60;0.40;;;;;;;;;;5041217;28;20206;-72
2020/12/04 10:18:25;;;;;;;0.53;0.50;;;;;;;;;;5050562;28;20220;-73
2020/12/04 10:20:50;;;;;;;0.90;0.53;;;;;;;;;;5045892;28;20214;-73
2020/12/04 10:23:15;;;;;;;1.17;0.63;;;;;;;;;;5044793;28;20204;-73
2020/12/04 10:25:41;;;;;;;0.43;0.40;;;;;;;;;;5041844;28;20177;-72
2020/12/04 10:28:06;;;;;;;0.47;0.47;;;;;;;;;;5046937;28;20190;-73
2020/12/04 10:30:31;;;;;;;0.90;0.57;;;;;;;;;;5051842;28;20169;-72
2020/12/04 10:32:56;;;;;;;0.90;0.60;;;;;;;;;;5043149;28;20277;-73
2020/12/04 10:35:21;;;;;;;1.00;0.73;;;;;;;;;;5043030;28;20186;-73
2020/12/04 10:37:46;;;;;;;0.60;0.60;;;;;;;;;;5049549;28;20288;-74
2020/12/04 10:40:12;;;;;;;2.33;0.63;;;;;;;;;;5044809;28;20174;-72
2020/12/04 10:42:37;;;;;;;0.60;0.40;;;;;;;;;;5047666;28;20209;-72
2020/12/04 10:45:02;;;;;;;0.40;0.40;;;;;;;;;;5039585;28;20178;-74
2020/12/04 10:47:27;;;;;;;1.47;0.50;;;;;;;;;;5048413;28;20216;-72
2020/12/04 10:49:52;;;;;;;1.07;0.70;;;;;;;;;;5041786;28;20208;-72
2020/12/04 10:52:17;;;;;;;0.90;0.60;;;;;;;;;;5046463;28;20580;-75
2020/12/04 10:54:43;;;;;;;0.60;0.60;;;;;;;;;;5046021;28;20303;-74
2020/12/04 10:57:08;;;;;;;1.57;0.60;;;;;;;;;;5044748;28;20217;-74
2020/12/04 10:59:33;;;;;;;1.77;0.73;;;;;;;;;;5051011;28;20565;-73
2020/12/04 11:02:08;;;;;;;2.10;0.70;;;;;;;;;;5036947;28;20190;-74
2020/12/04 11:07:17;;;;;;;0.80;0.60;;;;;;;;;;5045980;28;20204;-74
2020/12/04 11:09:42;;;;;;;2.23;0.67;;;;;;;;;;5043380;28;20648;-74
2020/12/04 11:12:07;;;;;;;0.67;0.53;;;;;;;;;;5046866;28;20293;-74
2020/12/04 11:14:32;;;;;;;1.07;0.63;;;;;;;;;;5049205;28;20258;-74
2020/12/04 11:16:58;;;;;;;0.63;0.50;;;;;;;;;;5046424;28;20200;-75
2020/12/04 11:19:23;;;;;;;0.77;0.50;;;;;;;;;;5046153;28;20178;-75
2020/12/04 11:21:48;;;;;;;2.17;0.60;;;;;;;;;;5049095;28;20269;-72
2020/12/04 11:24:13;;;;;;;0.50;0.50;;;;;;;;;;5043790;28;20196;-75
2020/12/04 11:26:40;;;;;;;1.23;0.50;;;;;;;;;;5046181;28;20177;-74
2020/12/04 11:29:06;;;;;;;0.50;0.50;;;;;;;;;;5042018;28;20179;-74
2020/12/04 11:31:32;;;;;;;0.57;0.57;;;;;;;;;;5043194;28;20209;-74
2020/12/04 11:33:57;;;;;;;3.87;1.80;;;;;;;;;;5044446;28;20213;-74
2020/12/04 11:36:22;;;;;;;0.60;0.60;;;;;;;;;;5036874;28;20671;-74
2020/12/04 11:39:00;;;;;;;0.63;0.60;;;;;;;;;;5040799;28;20549;-74
2020/12/04 11:41:28;;;;;;;0.50;0.50;;;;;;;;;;5044596;28;21644;-74
2020/12/04 11:43:53;;;;;;;1.07;0.70;;;;;;;;;;5035289;28;20228;-74
2020/12/04 11:46:19;;;;;;;1.07;1.03;;;;;;;;;;5044721;28;20593;-74
2020/12/04 11:48:44;;;;;;;0.83;0.50;;;;;;;;;;5051960;28;20233;-74
2020/12/04 11:51:09;;;;;;;0.60;0.60;;;;;;;;;;5046933;28;20647;-74
2020/12/04 11:53:34;;;;;;;1.83;0.60;;;;;;;;;;5043054;28;20204;-74
2020/12/04 11:56:02;;;;;;;0.53;0.53;;;;;;;;;;5039085;28;20191;-74
2020/12/04 11:58:27;;;;;;;0.53;0.53;;;;;;;;;;5043267;28;20170;-74
2020/12/04 12:00:52;;;;;;;0.60;0.60;;;;;;;;;;5035636;28;20541;-74
2020/12/04 12:03:17;;;;;;;0.40;0.40;;;;;;;;;;5046637;28;20225;-73
2020/12/04 12:05:43;;;;;;;0.80;0.53;;;;;;;;;;5043892;28;20174;-74
2020/12/04 12:08:08;;;;;;;1.43;0.70;;;;;;;;;;5048702;28;20169;-73
2020/12/04 12:10:33;;;;;;;1.57;0.67;;;;;;;;;;5049524;28;20170;-74
2020/12/04 12:12:58;;;;;;;0.50;0.50;;;;;;;;;;5049771;28;20197;-74
2020/12/04 12:15:23;;;;;;;2.67;0.77;;;;;;;;;;5044889;28;20182;-74
2020/12/04 12:17:49;;;;;;;1.37;0.50;;;;;;;;;;5047342;28;20208;-73
2020/12/04 12:20:14;;;;;;;0.80;0.50;;;;;;;;;;5046076;28;20178;-74
2020/12/04 12:22:42;;;;;;;2.53;0.80;;;;;;;;;;5051816;28;20190;-74
2020/12/04 12:25:07;;;;;;;0.73;0.60;;;;;;;;;;5042699;28;20251;-74
2020/12/04 12:27:32;;;;;;;2.53;0.70;;;;;;;;;;5044976;28;20173;-75
2020/12/04 12:29:57;;;;;;;0.90;0.80;;;;;;;;;;5049462;28;20613;-75
2020/12/04 12:32:23;;;;;;;0.77;0.70;;;;;;;;;;5050924;28;20201;-75
2020/12/04 12:35:02;;;;;;;0.80;0.80;;;;;;;;;;5051862;28;20643;-75
2020/12/04 12:37:31;;;;;;;0.70;0.70;;;;;;;;;;5048254;28;20197;-72
2020/12/04 12:40:01;;;;;;;0.70;0.70;;;;;;;;;;5046554;28;20590;-75
2020/12/04 12:42:26;;;;;;;0.80;0.80;;;;;;;;;;5049340;28;20199;-74
2020/12/04 12:44:51;;;;;;;1.57;1.47;;;;;;;;;;5051196;28;20256;-74
2020/12/04 12:47:16;;;;;;;1.37;0.97;;;;;;;;;;5050791;28;20643;-75
2020/12/04 12:49:42;;;;;;;0.67;0.67;;;;;;;;;;5049880;28;20193;-73
2020/12/04 12:52:08;;;;;;;0.80;0.80;;;;;;;;;;5037592;28;20281;-72
2020/12/04 12:54:33;;;;;;;1.23;0.70;;;;;;;;;;5041658;28;20182;-71
2020/12/04 12:56:58;;;;;;;0.97;0.90;;;;;;;;;;5034602;28;20260;-72
2020/12/04 12:59:24;;;;;;;1.53;0.80;;;;;;;;;;5040436;28;20168;-75
2020/12/04 13:01:50;;;;;;;1.33;1.00;;;;;;;;;;5038918;28;20243;-75
2020/12/04 13:04:15;;;;;;;1.50;0.53;;;;;;;;;;5036912;28;20261;-76
2020/12/04 13:06:44;;;;;;;1.20;0.90;;;;;;;;;;5044804;28;20178;-75
2020/12/04 13:09:10;;;;;;;1.07;0.70;;;;;;;;;;5044732;28;20230;-75
2020/12/04 13:11:35;;;;;;;0.67;0.50;;;;;;;;;;5048166;28;20545;-74
2020/12/04 13:14:00;;;;;;;1.77;0.73;;;;;;;;;;5042125;28;20197;-74
2020/12/04 13:16:25;;;;;;;0.90;0.90;;;;;;;;;;5043981;28;20192;-74
2020/12/04 13:18:51;;;;;;;0.70;0.60;;;;;;;;;;5037188;28;20604;-74
2020/12/04 13:21:16;;;;;;;1.00;0.70;;;;;;;;;;5039111;28;20670;-74
2020/12/04 13:23:41;;;;;;;0.50;0.50;;;;;;;;;;5048045;28;20212;-75
2020/12/04 13:26:07;;;;;;;1.27;0.80;;;;;;;;;;5040012;28;20226;-74
2020/12/04 13:28:32;;;;;;;1.03;0.60;;;;;;;;;;5047154;28;20174;-74
2020/12/04 13:30:58;;;;;;;0.60;0.50;;;;;;;;;;5045526;28;20178;-74
2020/12/04 13:33:23;;;;;;;1.73;0.70;;;;;;;;;;5046517;28;20224;-74
2020/12/04 13:35:49;;;;;;;0.80;0.67;;;;;;;;;;5049048;28;20181;-74
2020/12/04 13:38:14;;;;;;;1.00;0.83;;;;;;;;;;5049768;28;20617;-75
2020/12/04 13:40:39;;;;;;;1.10;0.70;;;;;;;;;;5049531;28;20165;-74
2020/12/04 13:43:04;;;;;;;0.97;0.80;;;;;;;;;;5042745;28;20699;-74
2020/12/04 13:45:29;;;;;;;1.23;0.97;;;;;;;;;;5049408;28;20180;-74
2020/12/04 13:47:55;;;;;;;0.90;0.77;;;;;;;;;;5040216;28;20230;-74
2020/12/04 13:50:20;;;;;;;1.13;0.97;;;;;;;;;;5042554;28;20182;-72
2020/12/04 13:52:46;;;;;;;3.03;1.07;;;;;;;;;;5049189;28;20682;-74
2020/12/04 13:55:11;;;;;;;2.20;0.80;;;;;;;;;;5044133;28;20870;-74
2020/12/04 13:57:36;;;;;;;0.70;0.50;;;;;;;;;;5041448;28;20227;-74
2020/12/04 14:00:02;;;;;;;0.50;0.50;;;;;;;;;;5036304;28;20182;-74
2020/12/04 14:02:29;;;;;;;0.50;0.50;;;;;;;;;;5040898;28;20205;-74
2020/12/04 14:04:54;;;;;;;0.77;0.60;;;;;;;;;;5041399;28;20622;-74
2020/12/04 14:07:20;;;;;;;0.80;0.60;;;;;;;;;;5043584;28;20208;-75
2020/12/04 14:09:45;;;;;;;0.40;0.40;;;;;;;;;;5046355;28;20180;-73
2020/12/04 14:12:11;;;;;;;0.77;0.60;;;;;;;;;;5042780;28;20583;-74
2020/12/04 14:14:36;;;;;;;0.90;0.50;;;;;;;;;;5045564;28;20170;-74
2020/12/04 14:17:01;;;;;;;0.93;0.50;;;;;;;;;;5047779;28;20197;-74
2020/12/04 14:19:27;;;;;;;0.97;0.70;;;;;;;;;;5046335;28;20219;-74
2020/12/04 14:21:53;;;;;;;1.17;0.70;;;;;;;;;;5043515;28;20198;-73
2020/12/04 14:24:18;;;;;;;0.60;0.60;;;;;;;;;;5048135;28;20174;-74
2020/12/04 14:26:44;;;;;;;1.13;0.67;;;;;;;;;;5048092;28;20181;-71
2020/12/04 14:29:09;;;;;;;0.50;0.50;;;;;;;;;;5045145;28;20265;-74
2020/12/04 14:31:34;;;;;;;2.07;0.60;;;;;;;;;;5047211;28;20177;-74
2020/12/04 14:33:59;;;;;;;2.13;0.53;;;;;;;;;;5042358;28;20178;-75
2020/12/04 14:36:24;;;;;;;0.60;0.60;;;;;;;;;;5044830;28;20244;-74
2020/12/04 14:39:08;;;;;;;0.83;0.43;;;;;;;;;;5040764;28;20726;-74
2020/12/04 14:41:34;;;;;;;1.17;0.50;;;;;;;;;;5034318;28;20268;-74